sensor_id;sensor_type;location;lat;lon;timestamp;P1;durP1;ratioP1;P2;durP2;ratioP2
9128;SDS011;4599;50.906;6.786;2023-07-28T00:02:53;2.33;;;1.10;;
9128;SDS011;4599;50.906;6.786;2023-07-28T00:06:54;1.73;;;1.10;;
9128;SDS011;4599;50.906;6.786;2023-07-28T00:10:56;4.40;;;1.00;;
9128;SDS011;4599;50.906;6.786;2023-07-28T00:14:59;1.10;;;1.00;;
9128;SDS011;4599;50.906;6.786;2023-07-28T00:19:01;3.20;;;1.27;;
9128;SDS011;4599;50.906;6.786;2023-07-28T00:23:02;1.50;;;1.10;;
9128;SDS011;4599;50.906;6.786;2023-07-28T00:27:04;1.43;;;1.00;;
9128;SDS011;4599;50.906;6.786;2023-07-28T00:31:08;1.80;;;0.93;;
9128;SDS011;4599;50.906;6.786;2023-07-28T00:35:10;3.20;;;1.03;;
9128;SDS011;4599;50.906;6.786;2023-07-28T00:39:11;1.57;;;0.93;;
9128;SDS011;4599;50.906;6.786;2023-07-28T00:43:13;1.67;;;1.10;;
9128;SDS011;4599;50.906;6.786;2023-07-28T00:47:16;2.70;;;0.93;;
9128;SDS011;4599;50.906;6.786;2023-07-28T00:51:18;2.03;;;1.00;;
9128;SDS011;4599;50.906;6.786;2023-07-28T00:55:20;7.77;;;1.10;;
9128;SDS011;4599;50.906;6.786;2023-07-28T00:59:23;2.03;;;0.87;;
9128;SDS011;4599;50.906;6.786;2023-07-28T01:03:26;0.97;;;0.80;;
9128;SDS011;4599;50.906;6.786;2023-07-28T01:07:30;3.80;;;0.97;;
9128;SDS011;4599;50.906;6.786;2023-07-28T01:11:52;1.50;;;1.40;;
9128;SDS011;4599;50.906;6.786;2023-07-28T01:15:54;0.93;;;0.80;;
9128;SDS011;4599;50.906;6.786;2023-07-28T01:19:57;2.27;;;0.90;;
9128;SDS011;4599;50.906;6.786;2023-07-28T01:24:01;4.00;;;0.90;;
9128;SDS011;4599;50.906;6.786;2023-07-28T01:28:11;0.80;;;0.80;;
9128;SDS011;4599;50.906;6.786;2023-07-28T01:32:15;5.50;;;0.80;;
9128;SDS011;4599;50.906;6.786;2023-07-28T01:36:17;0.63;;;0.63;;
9128;SDS011;4599;50.906;6.786;2023-07-28T01:40:19;1.67;;;0.80;;
9128;SDS011;4599;50.906;6.786;2023-07-28T01:44:23;1.80;;;0.80;;
9128;SDS011;4599;50.906;6.786;2023-07-28T01:48:25;2.97;;;0.77;;
9128;SDS011;4599;50.906;6.786;2023-07-28T01:52:27;4.00;;;0.80;;
9128;SDS011;4599;50.906;6.786;2023-07-28T01:56:29;2.33;;;0.90;;
9128;SDS011;4599;50.906;6.786;2023-07-28T02:00:32;2.53;;;1.00;;
9128;SDS011;4599;50.906;6.786;2023-07-28T02:04:34;3.40;;;0.90;;
9128;SDS011;4599;50.906;6.786;2023-07-28T02:08:37;1.13;;;0.80;;
9128;SDS011;4599;50.906;6.786;2023-07-28T02:12:39;1.23;;;0.90;;
9128;SDS011;4599;50.906;6.786;2023-07-28T02:16:43;2.30;;;0.90;;
9128;SDS011;4599;50.906;6.786;2023-07-28T02:20:47;0.70;;;0.70;;
9128;SDS011;4599;50.906;6.786;2023-07-28T02:24:49;4.20;;;1.00;;
9128;SDS011;4599;50.906;6.786;2023-07-28T02:28:50;0.80;;;0.80;;
9128;SDS011;4599;50.906;6.786;2023-07-28T02:32:54;2.50;;;0.80;;
9128;SDS011;4599;50.906;6.786;2023-07-28T02:36:55;3.30;;;0.83;;
9128;SDS011;4599;50.906;6.786;2023-07-28T02:40:58;1.77;;;0.90;;
9128;SDS011;4599;50.906;6.786;2023-07-28T02:45:00;2.67;;;1.10;;
9128;SDS011;4599;50.906;6.786;2023-07-28T02:49:02;0.77;;;0.77;;
9128;SDS011;4599;50.906;6.786;2023-07-28T02:53:04;3.50;;;0.90;;
9128;SDS011;4599;50.906;6.786;2023-07-28T02:57:06;1.23;;;1.00;;
9128;SDS011;4599;50.906;6.786;2023-07-28T03:01:07;3.03;;;0.90;;
9128;SDS011;4599;50.906;6.786;2023-07-28T03:05:11;2.33;;;1.00;;
9128;SDS011;4599;50.906;6.786;2023-07-28T03:09:13;4.87;;;1.10;;
9128;SDS011;4599;50.906;6.786;2023-07-28T03:13:15;2.10;;;1.00;;
9128;SDS011;4599;50.906;6.786;2023-07-28T03:17:17;2.33;;;0.90;;
9128;SDS011;4599;50.906;6.786;2023-07-28T03:21:20;3.47;;;1.10;;
9128;SDS011;4599;50.906;6.786;2023-07-28T03:25:22;2.80;;;1.17;;
9128;SDS011;4599;50.906;6.786;2023-07-28T03:29:24;1.60;;;1.10;;
9128;SDS011;4599;50.906;6.786;2023-07-28T03:33:28;1.10;;;1.00;;
9128;SDS011;4599;50.906;6.786;2023-07-28T03:37:31;4.30;;;1.50;;
9128;SDS011;4599;50.906;6.786;2023-07-28T03:41:33;1.67;;;1.10;;
9128;SDS011;4599;50.906;6.786;2023-07-28T03:45:35;6.37;;;1.80;;
9128;SDS011;4599;50.906;6.786;2023-07-28T03:49:37;1.83;;;1.20;;
9128;SDS011;4599;50.906;6.786;2023-07-28T03:53:40;3.70;;;1.40;;
9128;SDS011;4599;50.906;6.786;2023-07-28T03:57:41;3.70;;;1.20;;
9128;SDS011;4599;50.906;6.786;2023-07-28T04:01:43;6.43;;;1.30;;
9128;SDS011;4599;50.906;6.786;2023-07-28T04:05:45;3.57;;;1.40;;
9128;SDS011;4599;50.906;6.786;2023-07-28T04:09:48;3.57;;;1.50;;
9128;SDS011;4599;50.906;6.786;2023-07-28T04:13:49;2.00;;;1.47;;
9128;SDS011;4599;50.906;6.786;2023-07-28T04:17:51;2.80;;;1.83;;
9128;SDS011;4599;50.906;6.786;2023-07-28T04:21:53;3.10;;;1.40;;
9128;SDS011;4599;50.906;6.786;2023-07-28T04:25:56;1.53;;;1.43;;
9128;SDS011;4599;50.906;6.786;2023-07-28T04:29:58;8.07;;;1.63;;
9128;SDS011;4599;50.906;6.786;2023-07-28T04:34:01;3.33;;;1.37;;
9128;SDS011;4599;50.906;6.786;2023-07-28T04:38:03;3.43;;;1.43;;
9128;SDS011;4599;50.906;6.786;2023-07-28T04:42:06;2.30;;;1.20;;
9128;SDS011;4599;50.906;6.786;2023-07-28T04:46:08;3.23;;;1.40;;
9128;SDS011;4599;50.906;6.786;2023-07-28T04:50:10;2.47;;;1.13;;
9128;SDS011;4599;50.906;6.786;2023-07-28T04:54:12;2.50;;;1.13;;
9128;SDS011;4599;50.906;6.786;2023-07-28T04:58:15;5.73;;;1.10;;
9128;SDS011;4599;50.906;6.786;2023-07-28T05:02:17;4.23;;;1.27;;
9128;SDS011;4599;50.906;6.786;2023-07-28T05:06:18;1.17;;;0.97;;
9128;SDS011;4599;50.906;6.786;2023-07-28T05:10:20;1.50;;;0.90;;
9128;SDS011;4599;50.906;6.786;2023-07-28T05:14:23;2.00;;;0.90;;
9128;SDS011;4599;50.906;6.786;2023-07-28T05:18:25;1.37;;;0.80;;
9128;SDS011;4599;50.906;6.786;2023-07-28T05:22:27;2.00;;;1.00;;
9128;SDS011;4599;50.906;6.786;2023-07-28T05:26:28;1.53;;;0.90;;
9128;SDS011;4599;50.906;6.786;2023-07-28T05:30:31;3.67;;;1.47;;
9128;SDS011;4599;50.906;6.786;2023-07-28T05:34:33;0.80;;;0.80;;
9128;SDS011;4599;50.906;6.786;2023-07-28T05:38:34;1.53;;;0.80;;
9128;SDS011;4599;50.906;6.786;2023-07-28T05:42:36;0.90;;;0.80;;
9128;SDS011;4599;50.906;6.786;2023-07-28T05:46:39;0.93;;;0.70;;
9128;SDS011;4599;50.906;6.786;2023-07-28T05:50:41;2.50;;;0.80;;
9128;SDS011;4599;50.906;6.786;2023-07-28T05:54:43;2.13;;;1.10;;
9128;SDS011;4599;50.906;6.786;2023-07-28T05:58:45;2.23;;;0.90;;
9128;SDS011;4599;50.906;6.786;2023-07-28T06:02:49;0.60;;;0.60;;
9128;SDS011;4599;50.906;6.786;2023-07-28T06:06:51;1.90;;;0.80;;
9128;SDS011;4599;50.906;6.786;2023-07-28T06:10:52;1.33;;;0.70;;
9128;SDS011;4599;50.906;6.786;2023-07-28T06:14:54;0.73;;;0.73;;
9128;SDS011;4599;50.906;6.786;2023-07-28T06:18:57;0.80;;;0.80;;
9128;SDS011;4599;50.906;6.786;2023-07-28T06:22:58;2.03;;;1.00;;
9128;SDS011;4599;50.906;6.786;2023-07-28T06:27:01;1.07;;;0.90;;
9128;SDS011;4599;50.906;6.786;2023-07-28T06:31:03;1.17;;;1.00;;
9128;SDS011;4599;50.906;6.786;2023-07-28T06:35:07;6.13;;;1.20;;
9128;SDS011;4599;50.906;6.786;2023-07-28T06:39:08;5.53;;;1.23;;
9128;SDS011;4599;50.906;6.786;2023-07-28T06:43:10;5.17;;;1.23;;
9128;SDS011;4599;50.906;6.786;2023-07-28T06:47:12;1.10;;;1.07;;
9128;SDS011;4599;50.906;6.786;2023-07-28T06:51:15;2.50;;;1.30;;
9128;SDS011;4599;50.906;6.786;2023-07-28T06:55:17;1.40;;;1.30;;
9128;SDS011;4599;50.906;6.786;2023-07-28T06:59:19;2.20;;;1.50;;
9128;SDS011;4599;50.906;6.786;2023-07-28T07:03:23;1.60;;;1.50;;
9128;SDS011;4599;50.906;6.786;2023-07-28T07:07:26;1.50;;;1.40;;
9128;SDS011;4599;50.906;6.786;2023-07-28T07:11:31;4.20;;;1.50;;
9128;SDS011;4599;50.906;6.786;2023-07-28T07:15:35;3.20;;;1.70;;
9128;SDS011;4599;50.906;6.786;2023-07-28T07:19:38;2.00;;;1.50;;
9128;SDS011;4599;50.906;6.786;2023-07-28T07:23:41;2.57;;;1.70;;
9128;SDS011;4599;50.906;6.786;2023-07-28T07:27:44;3.07;;;2.00;;
9128;SDS011;4599;50.906;6.786;2023-07-28T07:31:46;1.83;;;1.70;;
9128;SDS011;4599;50.906;6.786;2023-07-28T07:35:47;3.63;;;1.90;;
9128;SDS011;4599;50.906;6.786;2023-07-28T07:39:51;2.63;;;1.90;;
9128;SDS011;4599;50.906;6.786;2023-07-28T07:43:53;4.83;;;1.80;;
9128;SDS011;4599;50.906;6.786;2023-07-28T07:47:55;2.00;;;1.80;;
9128;SDS011;4599;50.906;6.786;2023-07-28T07:51:57;1.90;;;1.80;;
9128;SDS011;4599;50.906;6.786;2023-07-28T07:56:01;2.23;;;1.80;;
9128;SDS011;4599;50.906;6.786;2023-07-28T08:00:03;2.43;;;1.60;;
9128;SDS011;4599;50.906;6.786;2023-07-28T08:04:07;2.13;;;1.90;;
9128;SDS011;4599;50.906;6.786;2023-07-28T08:08:09;1.60;;;1.50;;
9128;SDS011;4599;50.906;6.786;2023-07-28T08:12:12;1.30;;;1.20;;
9128;SDS011;4599;50.906;6.786;2023-07-28T08:16:15;3.20;;;1.40;;
9128;SDS011;4599;50.906;6.786;2023-07-28T08:20:18;1.10;;;1.10;;
9128;SDS011;4599;50.906;6.786;2023-07-28T08:24:19;1.63;;;1.00;;
9128;SDS011;4599;50.906;6.786;2023-07-28T08:28:22;3.93;;;1.30;;
9128;SDS011;4599;50.906;6.786;2023-07-28T08:32:24;1.47;;;1.30;;
9128;SDS011;4599;50.906;6.786;2023-07-28T08:36:26;4.57;;;1.23;;
9128;SDS011;4599;50.906;6.786;2023-07-28T08:40:27;1.53;;;1.20;;
9128;SDS011;4599;50.906;6.786;2023-07-28T08:44:31;1.30;;;1.20;;
9128;SDS011;4599;50.906;6.786;2023-07-28T08:48:34;1.27;;;1.00;;
9128;SDS011;4599;50.906;6.786;2023-07-28T08:52:36;1.90;;;1.10;;
9128;SDS011;4599;50.906;6.786;2023-07-28T08:56:38;0.93;;;0.93;;
9128;SDS011;4599;50.906;6.786;2023-07-28T09:00:41;2.40;;;1.10;;
9128;SDS011;4599;50.906;6.786;2023-07-28T09:04:43;1.47;;;0.90;;
9128;SDS011;4599;50.906;6.786;2023-07-28T09:08:45;0.70;;;0.70;;
9128;SDS011;4599;50.906;6.786;2023-07-28T09:12:47;1.55;;;0.80;;
9128;SDS011;4599;50.906;6.786;2023-07-28T09:16:51;1.00;;;0.90;;
9128;SDS011;4599;50.906;6.786;2023-07-28T09:20:53;3.05;;;0.90;;
9128;SDS011;4599;50.906;6.786;2023-07-28T09:24:55;0.85;;;0.80;;
9128;SDS011;4599;50.906;6.786;2023-07-28T09:28:57;0.80;;;0.80;;
9128;SDS011;4599;50.906;6.786;2023-07-28T09:33:00;0.60;;;0.60;;
9128;SDS011;4599;50.906;6.786;2023-07-28T09:37:04;1.05;;;0.70;;
9128;SDS011;4599;50.906;6.786;2023-07-28T09:41:07;0.80;;;0.80;;
9128;SDS011;4599;50.906;6.786;2023-07-28T09:45:10;0.63;;;0.63;;
9128;SDS011;4599;50.906;6.786;2023-07-28T09:49:34;0.70;;;0.70;;
9128;SDS011;4599;50.906;6.786;2023-07-28T09:53:39;0.93;;;0.67;;
9128;SDS011;4599;50.906;6.786;2023-07-28T09:57:44;0.77;;;0.70;;
9128;SDS011;4599;50.906;6.786;2023-07-28T10:01:47;0.97;;;0.87;;
9128;SDS011;4599;50.906;6.786;2023-07-28T10:05:52;0.60;;;0.60;;
9128;SDS011;4599;50.906;6.786;2023-07-28T10:09:54;2.97;;;0.90;;
9128;SDS011;4599;50.906;6.786;2023-07-28T10:13:56;0.83;;;0.83;;
9128;SDS011;4599;50.906;6.786;2023-07-28T10:17:58;0.70;;;0.70;;
9128;SDS011;4599;50.906;6.786;2023-07-28T10:22:04;0.80;;;0.77;;
9128;SDS011;4599;50.906;6.786;2023-07-28T10:26:08;0.80;;;0.80;;
9128;SDS011;4599;50.906;6.786;2023-07-28T10:30:11;1.03;;;0.80;;
9128;SDS011;4599;50.906;6.786;2023-07-28T10:34:15;0.70;;;0.70;;
9128;SDS011;4599;50.906;6.786;2023-07-28T10:38:34;0.67;;;0.67;;
9128;SDS011;4599;50.906;6.786;2023-07-28T10:42:36;0.87;;;0.80;;
9128;SDS011;4599;50.906;6.786;2023-07-28T10:46:38;1.00;;;0.88;;
9128;SDS011;4599;50.906;6.786;2023-07-28T10:50:40;0.90;;;0.80;;
9128;SDS011;4599;50.906;6.786;2023-07-28T10:54:43;0.70;;;0.70;;
9128;SDS011;4599;50.906;6.786;2023-07-28T10:58:45;0.80;;;0.80;;
9128;SDS011;4599;50.906;6.786;2023-07-28T11:02:47;0.90;;;0.80;;
9128;SDS011;4599;50.906;6.786;2023-07-28T11:06:50;1.87;;;0.93;;
9128;SDS011;4599;50.906;6.786;2023-07-28T11:10:56;0.97;;;0.97;;
9128;SDS011;4599;50.906;6.786;2023-07-28T11:14:58;1.70;;;0.83;;
9128;SDS011;4599;50.906;6.786;2023-07-28T11:19:00;2.10;;;0.90;;
9128;SDS011;4599;50.906;6.786;2023-07-28T11:23:02;0.87;;;0.87;;
9128;SDS011;4599;50.906;6.786;2023-07-28T11:27:07;0.90;;;0.90;;
9128;SDS011;4599;50.906;6.786;2023-07-28T11:31:09;1.03;;;0.80;;
9128;SDS011;4599;50.906;6.786;2023-07-28T11:35:11;0.90;;;0.83;;
9128;SDS011;4599;50.906;6.786;2023-07-28T11:39:14;1.03;;;0.80;;
9128;SDS011;4599;50.906;6.786;2023-07-28T11:43:19;4.30;;;0.83;;
9128;SDS011;4599;50.906;6.786;2023-07-28T11:47:23;1.10;;;0.87;;
9128;SDS011;4599;50.906;6.786;2023-07-28T11:51:24;1.30;;;0.90;;
9128;SDS011;4599;50.906;6.786;2023-07-28T11:55:26;1.17;;;0.80;;
9128;SDS011;4599;50.906;6.786;2023-07-28T11:59:29;0.90;;;0.90;;
9128;SDS011;4599;50.906;6.786;2023-07-28T12:03:31;0.80;;;0.80;;
9128;SDS011;4599;50.906;6.786;2023-07-28T12:07:33;0.82;;;0.82;;
9128;SDS011;4599;50.906;6.786;2023-07-28T12:11:35;0.68;;;0.68;;
9128;SDS011;4599;50.906;6.786;2023-07-28T12:15:41;0.70;;;0.70;;
9128;SDS011;4599;50.906;6.786;2023-07-28T12:20:01;1.58;;;0.70;;
9128;SDS011;4599;50.906;6.786;2023-07-28T12:24:13;0.63;;;0.63;;
9128;SDS011;4599;50.906;6.786;2023-07-28T12:28:15;0.70;;;0.70;;
9128;SDS011;4599;50.906;6.786;2023-07-28T12:32:22;0.93;;;0.65;;
9128;SDS011;4599;50.906;6.786;2023-07-28T12:36:35;0.70;;;0.70;;
9128;SDS011;4599;50.906;6.786;2023-07-28T12:40:39;2.30;;;0.80;;
9128;SDS011;4599;50.906;6.786;2023-07-28T12:44:44;0.70;;;0.70;;
9128;SDS011;4599;50.906;6.786;2023-07-28T12:48:50;1.07;;;0.70;;
9128;SDS011;4599;50.906;6.786;2023-07-28T12:52:52;3.47;;;0.80;;
9128;SDS011;4599;50.906;6.786;2023-07-28T12:56:56;1.73;;;0.90;;
9128;SDS011;4599;50.906;6.786;2023-07-28T13:01:01;0.93;;;0.93;;
9128;SDS011;4599;50.906;6.786;2023-07-28T13:05:05;1.70;;;0.80;;
9128;SDS011;4599;50.906;6.786;2023-07-28T13:09:07;1.00;;;0.87;;
9128;SDS011;4599;50.906;6.786;2023-07-28T13:13:12;0.67;;;0.67;;
9128;SDS011;4599;50.906;6.786;2023-07-28T13:17:15;0.80;;;0.80;;
9128;SDS011;4599;50.906;6.786;2023-07-28T13:21:18;1.03;;;0.80;;
9128;SDS011;4599;50.906;6.786;2023-07-28T13:25:20;0.80;;;0.80;;
9128;SDS011;4599;50.906;6.786;2023-07-28T13:29:21;1.07;;;0.70;;
9128;SDS011;4599;50.906;6.786;2023-07-28T13:33:23;2.43;;;0.80;;
9128;SDS011;4599;50.906;6.786;2023-07-28T13:37:27;0.87;;;0.80;;
9128;SDS011;4599;50.906;6.786;2023-07-28T13:41:29;0.60;;;0.60;;
9128;SDS011;4599;50.906;6.786;2023-07-28T13:45:31;0.73;;;0.73;;
9128;SDS011;4599;50.906;6.786;2023-07-28T13:49:33;0.80;;;0.80;;
9128;SDS011;4599;50.906;6.786;2023-07-28T13:53:53;0.77;;;0.60;;
9128;SDS011;4599;50.906;6.786;2023-07-28T13:57:57;2.00;;;0.60;;
9128;SDS011;4599;50.906;6.786;2023-07-28T14:02:00;0.40;;;0.40;;
9128;SDS011;4599;50.906;6.786;2023-07-28T14:06:02;1.17;;;0.40;;
9128;SDS011;4599;50.906;6.786;2023-07-28T14:10:06;0.53;;;0.53;;
9128;SDS011;4599;50.906;6.786;2023-07-28T14:14:08;0.50;;;0.50;;
9128;SDS011;4599;50.906;6.786;2023-07-28T14:18:11;1.97;;;0.50;;
9128;SDS011;4599;50.906;6.786;2023-07-28T14:22:13;0.87;;;0.40;;
9128;SDS011;4599;50.906;6.786;2023-07-28T14:26:17;1.03;;;0.40;;
9128;SDS011;4599;50.906;6.786;2023-07-28T14:30:19;2.20;;;0.60;;
9128;SDS011;4599;50.906;6.786;2023-07-28T14:34:21;0.38;;;0.38;;
9128;SDS011;4599;50.906;6.786;2023-07-28T14:38:25;1.60;;;0.80;;
9128;SDS011;4599;50.906;6.786;2023-07-28T14:42:28;0.53;;;0.53;;
9128;SDS011;4599;50.906;6.786;2023-07-28T14:46:30;0.50;;;0.50;;
9128;SDS011;4599;50.906;6.786;2023-07-28T14:50:32;0.67;;;0.57;;
9128;SDS011;4599;50.906;6.786;2023-07-28T14:54:34;0.70;;;0.70;;
9128;SDS011;4599;50.906;6.786;2023-07-28T14:58:38;0.60;;;0.60;;
9128;SDS011;4599;50.906;6.786;2023-07-28T15:02:40;0.83;;;0.80;;
9128;SDS011;4599;50.906;6.786;2023-07-28T15:06:43;1.50;;;0.50;;
9128;SDS011;4599;50.906;6.786;2023-07-28T15:10:46;0.50;;;0.50;;
9128;SDS011;4599;50.906;6.786;2023-07-28T15:14:50;1.27;;;0.63;;
9128;SDS011;4599;50.906;6.786;2023-07-28T15:18:53;0.50;;;0.50;;
9128;SDS011;4599;50.906;6.786;2023-07-28T15:22:55;0.80;;;0.43;;
9128;SDS011;4599;50.906;6.786;2023-07-28T15:26:57;0.70;;;0.57;;
9128;SDS011;4599;50.906;6.786;2023-07-28T15:31:03;2.00;;;0.70;;
9128;SDS011;4599;50.906;6.786;2023-07-28T15:35:06;0.70;;;0.70;;
9128;SDS011;4599;50.906;6.786;2023-07-28T15:39:08;0.67;;;0.50;;
9128;SDS011;4599;50.906;6.786;2023-07-28T15:43:11;0.60;;;0.60;;
9128;SDS011;4599;50.906;6.786;2023-07-28T15:47:15;0.60;;;0.60;;
9128;SDS011;4599;50.906;6.786;2023-07-28T15:54:30;0.50;;;0.50;;
9128;SDS011;4599;50.906;6.786;2023-07-28T15:58:52;0.90;;;0.80;;
9128;SDS011;4599;50.906;6.786;2023-07-28T16:03:14;1.77;;;0.63;;
9128;SDS011;4599;50.906;6.786;2023-07-28T16:07:36;0.70;;;0.70;;
9128;SDS011;4599;50.906;6.786;2023-07-28T16:12:00;1.00;;;0.80;;
9128;SDS011;4599;50.906;6.786;2023-07-28T16:16:22;0.70;;;0.70;;
9128;SDS011;4599;50.906;6.786;2023-07-28T16:20:45;1.20;;;0.80;;
9128;SDS011;4599;50.906;6.786;2023-07-28T16:25:07;0.80;;;0.80;;
9128;SDS011;4599;50.906;6.786;2023-07-28T16:29:31;0.90;;;0.90;;
9128;SDS011;4599;50.906;6.786;2023-07-28T16:33:53;0.87;;;0.87;;
9128;SDS011;4599;50.906;6.786;2023-07-28T16:38:15;1.00;;;0.90;;
9128;SDS011;4599;50.906;6.786;2023-07-28T16:42:37;5.13;;;1.00;;
9128;SDS011;4599;50.906;6.786;2023-07-28T16:47:01;1.33;;;1.00;;
9128;SDS011;4599;50.906;6.786;2023-07-28T16:51:24;1.17;;;0.90;;
9128;SDS011;4599;50.906;6.786;2023-07-28T16:55:46;1.87;;;0.90;;
9128;SDS011;4599;50.906;6.786;2023-07-28T17:00:09;2.60;;;0.90;;
9128;SDS011;4599;50.906;6.786;2023-07-28T17:04:33;6.30;;;1.20;;
9128;SDS011;4599;50.906;6.786;2023-07-28T17:08:55;2.47;;;1.00;;
9128;SDS011;4599;50.906;6.786;2023-07-28T17:13:18;1.97;;;0.90;;
9128;SDS011;4599;50.906;6.786;2023-07-28T17:17:40;2.90;;;1.03;;
9128;SDS011;4599;50.906;6.786;2023-07-28T17:22:04;1.20;;;0.97;;
9128;SDS011;4599;50.906;6.786;2023-07-28T17:26:26;1.43;;;0.97;;
9128;SDS011;4599;50.906;6.786;2023-07-28T17:30:49;2.57;;;1.00;;
9128;SDS011;4599;50.906;6.786;2023-07-28T17:35:11;1.00;;;0.93;;
9128;SDS011;4599;50.906;6.786;2023-07-28T17:39:34;2.43;;;1.20;;
9128;SDS011;4599;50.906;6.786;2023-07-28T17:43:56;1.30;;;0.90;;
9128;SDS011;4599;50.906;6.786;2023-07-28T17:48:18;1.87;;;0.97;;
9128;SDS011;4599;50.906;6.786;2023-07-28T17:52:41;1.10;;;0.83;;
9128;SDS011;4599;50.906;6.786;2023-07-28T17:57:05;3.40;;;1.00;;
9128;SDS011;4599;50.906;6.786;2023-07-28T18:01:27;2.50;;;0.90;;
9128;SDS011;4599;50.906;6.786;2023-07-28T18:05:49;1.87;;;0.90;;
9128;SDS011;4599;50.906;6.786;2023-07-28T18:10:11;2.47;;;1.17;;
9128;SDS011;4599;50.906;6.786;2023-07-28T18:14:35;1.47;;;1.07;;
9128;SDS011;4599;50.906;6.786;2023-07-28T18:18:57;1.93;;;0.97;;
9128;SDS011;4599;50.906;6.786;2023-07-28T18:23:20;1.30;;;0.90;;
9128;SDS011;4599;50.906;6.786;2023-07-28T18:27:42;2.63;;;0.93;;
9128;SDS011;4599;50.906;6.786;2023-07-28T18:32:05;1.97;;;1.20;;
9128;SDS011;4599;50.906;6.786;2023-07-28T18:36:27;4.53;;;1.30;;
9128;SDS011;4599;50.906;6.786;2023-07-28T18:40:49;1.60;;;1.27;;
9128;SDS011;4599;50.906;6.786;2023-07-28T18:45:12;1.17;;;1.10;;
9128;SDS011;4599;50.906;6.786;2023-07-28T18:49:36;4.70;;;1.00;;
9128;SDS011;4599;50.906;6.786;2023-07-28T18:53:58;2.37;;;0.90;;
9128;SDS011;4599;50.906;6.786;2023-07-28T18:58:22;5.80;;;1.30;;
9128;SDS011;4599;50.906;6.786;2023-07-28T19:02:45;3.50;;;1.30;;
9128;SDS011;4599;50.906;6.786;2023-07-28T19:07:08;3.07;;;1.27;;
9128;SDS011;4599;50.906;6.786;2023-07-28T19:11:31;2.70;;;1.40;;
9128;SDS011;4599;50.906;6.786;2023-07-28T19:15:53;3.07;;;1.30;;
9128;SDS011;4599;50.906;6.786;2023-07-28T19:20:15;4.67;;;1.20;;
9128;SDS011;4599;50.906;6.786;2023-07-28T19:24:39;2.30;;;1.20;;
9128;SDS011;4599;50.906;6.786;2023-07-28T19:29:01;2.73;;;1.50;;
9128;SDS011;4599;50.906;6.786;2023-07-28T19:33:24;1.60;;;1.50;;
9128;SDS011;4599;50.906;6.786;2023-07-28T19:37:46;2.73;;;1.07;;
9128;SDS011;4599;50.906;6.786;2023-07-28T19:42:09;2.23;;;1.10;;
9128;SDS011;4599;50.906;6.786;2023-07-28T19:46:31;2.57;;;1.20;;
9128;SDS011;4599;50.906;6.786;2023-07-28T19:50:54;2.90;;;1.23;;
9128;SDS011;4599;50.906;6.786;2023-07-28T19:55:16;2.97;;;1.20;;
9128;SDS011;4599;50.906;6.786;2023-07-28T19:59:42;2.37;;;1.30;;
9128;SDS011;4599;50.906;6.786;2023-07-28T20:04:06;4.53;;;1.50;;
9128;SDS011;4599;50.906;6.786;2023-07-28T20:08:32;3.73;;;1.30;;
9128;SDS011;4599;50.906;6.786;2023-07-28T20:12:55;2.07;;;1.40;;
9128;SDS011;4599;50.906;6.786;2023-07-28T20:17:26;5.53;;;1.30;;
9128;SDS011;4599;50.906;6.786;2023-07-28T20:21:49;4.03;;;1.30;;
9128;SDS011;4599;50.906;6.786;2023-07-28T20:26:11;5.73;;;1.40;;
9128;SDS011;4599;50.906;6.786;2023-07-28T20:30:34;3.70;;;1.43;;
9128;SDS011;4599;50.906;6.786;2023-07-28T20:35:01;10.60;;;1.63;;
9128;SDS011;4599;50.906;6.786;2023-07-28T20:39:28;3.23;;;1.30;;
9128;SDS011;4599;50.906;6.786;2023-07-28T20:43:50;2.17;;;1.30;;
9128;SDS011;4599;50.906;6.786;2023-07-28T20:48:13;5.43;;;1.47;;
9128;SDS011;4599;50.906;6.786;2023-07-28T20:52:37;1.40;;;1.30;;
9128;SDS011;4599;50.906;6.786;2023-07-28T20:56:59;4.00;;;1.57;;
9128;SDS011;4599;50.906;6.786;2023-07-28T21:01:21;1.87;;;1.40;;
9128;SDS011;4599;50.906;6.786;2023-07-28T21:05:45;7.13;;;1.30;;
9128;SDS011;4599;50.906;6.786;2023-07-28T21:10:09;1.50;;;1.40;;
9128;SDS011;4599;50.906;6.786;2023-07-28T21:14:31;4.40;;;1.67;;
9128;SDS011;4599;50.906;6.786;2023-07-28T21:18:53;3.73;;;1.43;;
9128;SDS011;4599;50.906;6.786;2023-07-28T21:23:15;2.10;;;1.27;;
9128;SDS011;4599;50.906;6.786;2023-07-28T21:27:39;2.40;;;1.20;;
9128;SDS011;4599;50.906;6.786;2023-07-28T21:32:01;7.17;;;1.73;;
9128;SDS011;4599;50.906;6.786;2023-07-28T21:36:23;6.10;;;1.40;;
9128;SDS011;4599;50.906;6.786;2023-07-28T21:40:46;3.73;;;1.43;;
9128;SDS011;4599;50.906;6.786;2023-07-28T21:45:10;3.20;;;1.20;;
9128;SDS011;4599;50.906;6.786;2023-07-28T21:49:33;3.40;;;1.20;;
9128;SDS011;4599;50.906;6.786;2023-07-28T21:53:55;4.03;;;1.47;;
9128;SDS011;4599;50.906;6.786;2023-07-28T21:58:17;1.43;;;1.20;;
9128;SDS011;4599;50.906;6.786;2023-07-28T22:02:41;3.17;;;1.10;;
9128;SDS011;4599;50.906;6.786;2023-07-28T22:07:04;3.67;;;0.97;;
9128;SDS011;4599;50.906;6.786;2023-07-28T22:11:26;2.60;;;1.07;;
9128;SDS011;4599;50.906;6.786;2023-07-28T22:15:48;1.23;;;1.13;;
9128;SDS011;4599;50.906;6.786;2023-07-28T22:20:12;1.47;;;1.10;;
9128;SDS011;4599;50.906;6.786;2023-07-28T22:24:34;1.57;;;1.20;;
9128;SDS011;4599;50.906;6.786;2023-07-28T22:28:56;2.20;;;1.17;;
9128;SDS011;4599;50.906;6.786;2023-07-28T22:33:18;1.03;;;1.00;;
9128;SDS011;4599;50.906;6.786;2023-07-28T22:37:41;1.03;;;1.03;;
9128;SDS011;4599;50.906;6.786;2023-07-28T22:42:04;4.23;;;1.33;;
9128;SDS011;4599;50.906;6.786;2023-07-28T22:46:26;2.83;;;1.23;;
9128;SDS011;4599;50.906;6.786;2023-07-28T22:50:48;1.37;;;1.13;;
9128;SDS011;4599;50.906;6.786;2023-07-28T22:55:12;2.37;;;1.30;;
9128;SDS011;4599;50.906;6.786;2023-07-28T22:59:37;3.73;;;1.23;;
9128;SDS011;4599;50.906;6.786;2023-07-28T23:03:59;1.43;;;1.33;;
9128;SDS011;4599;50.906;6.786;2023-07-28T23:08:22;3.03;;;1.40;;
9128;SDS011;4599;50.906;6.786;2023-07-28T23:12:46;2.30;;;1.20;;
9128;SDS011;4599;50.906;6.786;2023-07-28T23:17:08;4.60;;;1.37;;
9128;SDS011;4599;50.906;6.786;2023-07-28T23:21:31;5.90;;;1.40;;
9128;SDS011;4599;50.906;6.786;2023-07-28T23:25:54;1.63;;;1.20;;
9128;SDS011;4599;50.906;6.786;2023-07-28T23:30:18;3.13;;;1.27;;
9128;SDS011;4599;50.906;6.786;2023-07-28T23:34:40;2.93;;;1.13;;
9128;SDS011;4599;50.906;6.786;2023-07-28T23:39:02;2.20;;;1.23;;
9128;SDS011;4599;50.906;6.786;2023-07-28T23:43:24;3.67;;;1.77;;
9128;SDS011;4599;50.906;6.786;2023-07-28T23:47:48;3.80;;;1.43;;
9128;SDS011;4599;50.906;6.786;2023-07-28T23:52:10;4.80;;;1.20;;
9128;SDS011;4599;50.906;6.786;2023-07-28T23:56:35;1.97;;;1.03;;
